Latest Conditions
At L.F.Wade Int. Airport
Recorded at 10:55 am
Few Clouds
Temp.: 
28°C/82°F
Humidity: 
74%
Wind: 
SSW 14KT
or 16mph
UV Index: 
9
Island Observations
 
Observations
Friday, June 22, 2018

Observations are in local time and taken at least once an hour, or upon the start and end of specified events such as showers and thunderstorms.

Time Sky / Weather Wind Speed/Gusts Temp. R.H. Pressure
     knots (mph)  °C (°F)  %  mb / "Hg
 10:55 Few Clouds  SSW 14/0 (16/0) 28(82) 74 1019 / 30.08
 09:55 Few Clouds  SSW 14/0 (16/0) 27(81) 74 1018 / 30.07
 08:55 Partly Cloudy  SW 12/0 (14/0) 27(80) 73 1018 / 30.07
 07:55 Partly Cloudy  SSW 13/0 (15/0) 26(78) 83 1018 / 30.06
 06:55 Partly Cloudy  SSW 13/0 (15/0) 25(78) 85 1017 / 30.04
 05:55 Partly Cloudy  SSW 13/0 (15/0) 25(77) 85 1017 / 30.02
 04:55 Few Clouds  SW 11/0 (13/0) 25(77) 86 1016 / 30.01
 03:55 Few Clouds  SW 11/0 (13/0) 25(77) 86 1017 / 30.02
 02:55 Few Clouds  SW 11/0 (13/0) 25(77) 84 1016 / 30.01
 01:55 Few Clouds  SW 12/0 (14/0) 25(77) 86 1017 / 30.02
 00:55 Few Clouds  SW 12/0 (14/0) 25(78) 84 1017 / 30.02
 23:55 Few Clouds  SSW 12/0 (14/0) 25(78) 86 1017 / 30.02
 22:55 Few Clouds  SW 10/0 (12/0) 26(78) 87 1017 / 30.02
 21:55 Few Clouds  SW 9/0 (10/0) 26(78) 86 1017 / 30.02
 20:55 Few Clouds  SW 11/0 (13/0) 26(79) 80 1016 / 30.00
 19:55 Few Clouds  SW 13/0 (15/0) 27(80) 76 1016 / 30.00
 18:55 Few Clouds  SW 15/0 (17/0) 27(81) 76 1015 / 29.98
 17:55 Few Clouds  SSW 15/0 (17/0) 27(81) 73 1015 / 29.97
 16:55 Few Clouds  SSW 16/0 (18/0) 27(81) 73 1015 / 29.98
 15:55 Few Clouds  SSW 18/0 (21/0) 28(82) 72 1015 / 29.98
 14:55 Few Clouds  SSW 19/0 (22/0) 28(82) 71 1016 / 29.99
 13:55 Few Clouds  SSW 19/0 (22/0) 28(83) 72 1016 / 29.99
 12:55 Few Clouds  SSW 18/0 (21/0) 28(82) 70 1016 / 30.00
 11:55 Few Clouds  SW 18/0 (21/0) 28(82) 70 1016 / 29.99
 10:55 Few Clouds  SW 18/0 (21/0) 28(82) 69 1016 / 30.00
 09:55 Few Clouds  SSW 18/0 (21/0) 27(80) 74 1016 / 29.99
 08:55 Few Clouds  SSW 18/0 (21/0) 26(79) 77 1016 / 29.99
 07:55 Few Clouds  SW 18/0 (21/0) 26(78) 82 1016 / 29.99
 06:55 Mostly Cloudy  SW 16/0 (18/0) 25(77) 84 1015 / 29.98
 05:55 Mostly Cloudy Showers SW 15/0 (17/0) 25(77) 86 1015 / 29.97
 04:55 Mostly Cloudy Showers SW 18/0 (21/0) 25(78) 83 1014 / 29.95
 04:18 Mostly Cloudy Showers WSW 15/0 (17/0) 25(78) 85 1014 / 29.95
 03:55 Mostly Cloudy Showers SW 15/0 (17/0) 26(78) 83 1014 / 29.95
 03:38 Mostly Cloudy Showers WSW 15/0 (17/0) 25(78) 84 1014 / 29.95
 03:31 Mostly Cloudy Showers WSW 17/0 (20/0) 25(78) 84 1014 / 29.95
 02:55 Partly Cloudy  SW 15/0 (17/0) 26(78) 83 1015 / 29.96
 01:55 Few Clouds  SW 15/0 (17/0) 25(78) 85 1014 / 29.95
 00:55 Few Clouds  SW 12/0 (14/0) 26(78) 82 1015 / 29.97
 23:55 Partly Cloudy  SW 13/0 (15/0) 26(78) 81 1015 / 29.98
 22:55 Mostly Cloudy  SW 11/0 (13/0) 26(78) 79 1015 / 29.98
 21:55 Mostly Cloudy  SW 12/0 (14/0) 26(79) 78 1015 / 29.98
 20:55 Mostly Cloudy  SW 14/0 (16/0) 26(79) 77 1015 / 29.96
 19:55 Mostly Cloudy  SW 16/0 (18/0) 26(80) 76 1014 / 29.95
 18:55 Mostly Cloudy  SW 18/0 (21/0) 27(80) 74 1014 / 29.95
 17:55 Mostly Cloudy  WSW 17/0 (20/0) 27(80) 74 1014 / 29.94
 16:55 Partly Cloudy  WSW 16/0 (18/0) 27(81) 74 1014 / 29.94
 15:55 Few Clouds  WSW 16/0 (18/0) 28(82) 68 1014 / 29.95
 14:55 Partly Cloudy  WSW 18/0 (21/0) 28(82) 68 1015 / 29.96
 13:55 Partly Cloudy  WSW 18/0 (21/0) 27(81) 72 1015 / 29.97
 13:41 Mostly Cloudy  WSW 18/0 (21/0) 27(81) 71 1015 / 29.97
 13:24 Mostly Cloudy  SW 18/0 (21/0) 27(81) 72 1015 / 29.97
 13:07 Mostly Cloudy  SW 18/0 (21/0) 27(80) 72 1015 / 29.97
 12:55 Mostly Cloudy  SW 18/0 (21/0) 27(81) 70 1015 / 29.97
 12:28 Mostly Cloudy  SW 19/0 (22/0) 27(81) 69 1015 / 29.97
 11:55 Mostly Cloudy Showers SW 17/0 (20/0) 28(82) 68 1015 / 29.97
 10:55 Mostly Cloudy  SW 16/0 (18/0) 27(80) 71 1015 / 29.96
 09:55 Mostly Cloudy  SW 15/0 (17/0) 26(80) 70 1015 / 29.96
 08:55 Mostly Cloudy  SW 15/0 (17/0) 26(79) 71 1015 / 29.96
 07:55 Mostly Cloudy  SW 14/0 (16/0) 25(78) 75 1015 / 29.97
 06:55 Mostly Cloudy  SW 13/0 (15/0) 25(77) 77 1015 / 29.96
 05:55 Mostly Cloudy  SW 12/0 (14/0) 25(77) 75 1015 / 29.96
 04:55 Mostly Cloudy  SW 11/0 (13/0) 25(76) 75 1014 / 29.94
 03:55 Mostly Cloudy  SW 11/0 (13/0) 25(76) 75 1014 / 29.94
 02:55 Partly Cloudy  SW 11/0 (13/0) 24(76) 75 1014 / 29.94
 01:55 Partly Cloudy  SW 10/0 (12/0) 24(76) 73 1015 / 29.96
 00:55 Partly Cloudy  SW 10/0 (12/0) 25(76) 73 1015 / 29.97
 23:55 Partly Cloudy  SW 10/0 (12/0) 24(76) 73 1015 / 29.98
 22:55 Few Clouds  SW 10/0 (12/0) 24(76) 73 1016 / 29.99
 21:55 Few Clouds  SW 9/0 (10/0) 25(76) 71 1016 / 29.99
 20:55 Few Clouds  WSW 9/0 (10/0) 25(77) 68 1015 / 29.98
 19:55 Few Clouds  WSW 9/0 (10/0) 25(78) 66 1015 / 29.98
 18:55 Few Clouds  SW 11/0 (13/0) 26(78) 64 1015 / 29.98
 17:55 Few Clouds  SW 10/0 (12/0) 26(78) 65 1015 / 29.98
 16:55 Few Clouds  SSW 10/0 (12/0) 26(79) 60 1016 / 29.99
 15:55 Few Clouds  SSW 7/0 (8/0) 26(78) 61 1016 / 30.00
 14:55 Partly Cloudy  SSW 7/0 (8/0) 26(80) 64 1017 / 30.02
 13:55 Few Clouds  W 5/0 (6/0) 26(78) 66 1017 / 30.03
 12:55 Few Clouds  WSW 4/0 (5/0) 25(77) 69 1017 / 30.04
 11:55 Few Clouds  S 6/0 (7/0) 25(77) 69 1018 / 30.05
 10:55 Few Clouds  S 5/0 (6/0) 26(78) 66 1018 / 30.06
 09:55 Few Clouds  SSE 5/0 (6/0) 25(77) 65 1018 / 30.06
 08:55 Few Clouds  S 3/0 (3/0) 25(77) 69 1018 / 30.07
 07:55 Few Clouds  SSE 5/0 (6/0) 24(74) 74 1018 / 30.05
 06:55 Few Clouds  SE 5/0 (6/0) 24(74) 74 1017 / 30.04
 05:55 Few Clouds  E 6/0 (7/0) 22(72) 82 1017 / 30.04
 04:55 Few Clouds  E 5/0 (6/0) 22(72) 81 1018 / 30.05
 03:55 Few Clouds  E 4/0 (5/0) 23(73) 74 1018 / 30.06
 02:55 Few Clouds  NE 6/0 (7/0) 23(74) 75 1018 / 30.06
 01:55 Few Clouds  NE 5/0 (6/0) 23(73) 77 1019 / 30.08
 00:55 Partly Cloudy  ENE 6/0 (7/0) 23(73) 77 1019 / 30.09
 23:55 Few Clouds  NE 5/0 (6/0) 23(73) 73 1020 / 30.11
 22:55 Partly Cloudy  NE 5/0 (6/0) 23(74) 72 1020 / 30.12
 21:55 Few Clouds  NE 4/0 (5/0) 23(74) 70 1020 / 30.12
 20:55 Few Clouds  E 7/0 (8/0) 23(74) 69 1020 / 30.11
 19:55 Partly Cloudy  ENE 7/0 (8/0) 24(75) 66 1020 / 30.12
 18:55 Mostly Cloudy  NE 7/0 (8/0) 25(76) 66 1019 / 30.10
 17:55 Partly Cloudy  ENE 7/0 (8/0) 25(77) 65 1019 / 30.09
 16:55 Partly Cloudy  ENE 8/0 (9/0) 24(76) 66 1020 / 30.11
 15:55 Partly Cloudy  E 11/0 (13/0) 26(78) 63 1020 / 30.11
 14:55 Partly Cloudy  ESE 12/0 (14/0) 26(78) 63 1020 / 30.12
Island AWOS